createdAt,value
2023-01-17T00:02:21.162Z,45.17
2023-01-17T00:05:07.073Z,43.27
2023-01-17T00:07:52.731Z,41.63
2023-01-17T00:10:24.906Z,41.57
2023-01-17T00:13:03.384Z,42.23
2023-01-17T00:15:31.591Z,44.97
2023-01-17T00:17:59.345Z,39.27
2023-01-17T00:20:47.922Z,43.97
2023-01-17T00:23:39.001Z,44.35
2023-01-17T00:26:15.162Z,46.37
2023-01-17T00:28:43.537Z,39.43
2023-01-17T00:31:12.151Z,46.20
2023-01-17T00:33:39.274Z,40.33
2023-01-17T00:36:07.150Z,49.10
2023-01-17T00:38:36.665Z,42.13
2023-01-17T00:41:10.277Z,44.73
2023-01-17T00:43:55.770Z,45.80
2023-01-17T00:46:41.329Z,38.80
2023-01-17T00:49:27.717Z,38.03
2023-01-17T00:52:13.738Z,39.43
2023-01-17T00:54:59.506Z,26.27
2023-01-17T00:57:45.555Z,16.73
2023-01-17T01:00:31.602Z,13.03
2023-01-17T01:03:17.652Z,8.23
2023-01-17T01:06:03.464Z,6.73
2023-01-17T01:08:49.272Z,9.33
2023-01-17T01:11:39.656Z,5.57
2023-01-17T01:14:28.687Z,5.73
2023-01-17T01:17:14.161Z,4.88
2023-01-17T01:19:59.785Z,5.83
2023-01-17T01:22:45.415Z,5.53
2023-01-17T01:25:31.242Z,6.53
2023-01-17T01:28:29.094Z,6.77
2023-01-17T01:31:15.226Z,7.60
2023-01-17T01:33:42.183Z,5.40
2023-01-17T01:36:10.048Z,6.70
2023-01-17T01:38:37.451Z,5.83
2023-01-17T01:41:05.236Z,5.90
2023-01-17T01:43:47.295Z,7.07
2023-01-17T01:46:41.617Z,5.77
2023-01-17T01:49:17.352Z,5.77
2023-01-17T01:51:58.540Z,5.70
2023-01-17T01:54:37.191Z,5.63
2023-01-17T01:57:07.755Z,6.95
2023-01-17T01:59:39.205Z,6.73
2023-01-17T02:02:07.563Z,6.80
2023-01-17T02:04:35.318Z,8.17
2023-01-17T02:07:17.597Z,6.90
2023-01-17T02:09:44.834Z,6.63
2023-01-17T02:12:13.029Z,7.30
2023-01-17T02:14:39.889Z,8.17
2023-01-17T02:17:59.365Z,8.63
2023-01-17T02:23:36.427Z,7.40
2023-01-17T02:26:31.713Z,7.60
2023-01-17T02:29:37.788Z,6.50
2023-01-17T02:32:14.416Z,6.63
2023-01-17T02:34:54.709Z,7.60
2023-01-17T02:37:29.579Z,9.07
2023-01-17T02:40:03.045Z,9.17
2023-01-17T02:42:37.450Z,9.17
2023-01-17T02:45:05.351Z,7.70
2023-01-17T02:47:32.288Z,9.90
2023-01-17T02:50:18.551Z,9.00
2023-01-17T02:52:51.467Z,9.17
2023-01-17T02:55:39.702Z,10.17
2023-01-17T02:58:27.966Z,9.73
2023-01-17T03:01:06.883Z,9.75
2023-01-17T03:03:41.437Z,14.27
2023-01-17T03:06:20.660Z,9.63
2023-01-17T03:08:49.786Z,11.13
2023-01-17T03:11:17.454Z,10.90
2023-01-17T03:13:44.456Z,9.83
2023-01-17T03:16:21.213Z,12.63
2023-01-17T03:18:49.333Z,10.23
2023-01-17T03:21:16.858Z,12.32
2023-01-17T03:23:44.264Z,12.17
2023-01-17T03:26:11.605Z,11.40
2023-01-17T03:28:38.542Z,11.30
2023-01-17T03:31:06.061Z,9.07
2023-01-17T03:33:33.132Z,10.50
2023-01-17T03:36:00.628Z,10.20
2023-01-17T03:38:29.072Z,10.03
2023-01-17T03:40:56.333Z,10.07
2023-01-17T03:43:23.383Z,9.80
2023-01-17T03:45:52.200Z,9.23
2023-01-17T03:48:19.173Z,9.82
2023-01-17T03:50:51.443Z,12.60
2023-01-17T03:53:18.332Z,12.17
2023-01-17T03:55:46.424Z,9.90
2023-01-17T03:58:13.462Z,10.17
2023-01-17T04:00:40.688Z,13.33
2023-01-17T04:03:07.808Z,12.37
2023-01-17T04:05:35.054Z,10.40
2023-01-17T04:08:02.039Z,11.10
2023-01-17T04:10:29.190Z,11.60
2023-01-17T04:12:56.112Z,10.80
2023-01-17T04:15:23.311Z,10.23
2023-01-17T04:17:50.258Z,10.53
2023-01-17T04:20:29.160Z,9.97
2023-01-17T04:22:56.068Z,10.55
2023-01-17T04:25:23.505Z,10.33
2023-01-17T04:27:50.337Z,9.93
2023-01-17T04:30:17.584Z,10.37
2023-01-17T04:32:44.403Z,11.30
2023-01-17T04:35:11.707Z,13.00
2023-01-17T04:37:38.884Z,12.07
2023-01-17T04:40:06.597Z,8.00
2023-01-17T04:42:33.556Z,12.77
2023-01-17T04:45:00.748Z,8.57
2023-01-17T04:47:27.747Z,9.83
2023-01-17T04:49:55.094Z,9.03
2023-01-17T04:52:22.143Z,9.40
2023-01-17T04:54:49.653Z,9.10
2023-01-17T04:57:18.050Z,8.57
2023-01-17T04:59:46.317Z,11.35
2023-01-17T05:02:14.071Z,10.90
2023-01-17T05:04:41.304Z,9.70
2023-01-17T05:07:08.394Z,9.03
2023-01-17T05:09:35.575Z,8.70
2023-01-17T05:12:02.500Z,11.43
2023-01-17T05:14:29.673Z,9.87
2023-01-17T05:16:57.698Z,9.40
2023-01-17T05:19:26.412Z,9.85
2023-01-17T05:21:53.611Z,10.63
2023-01-17T05:24:21.078Z,12.93
2023-01-17T05:26:54.722Z,9.90
2023-01-17T05:29:22.115Z,11.73
2023-01-17T05:31:48.970Z,11.17
2023-01-17T05:34:17.450Z,11.57
2023-01-17T05:36:44.296Z,12.73
2023-01-17T05:39:11.421Z,10.17
2023-01-17T05:41:38.252Z,10.60
2023-01-17T05:44:05.595Z,12.83
2023-01-17T05:46:32.625Z,12.93
2023-01-17T05:48:59.852Z,13.20
2023-01-17T05:51:26.824Z,12.80
2023-01-17T05:53:54.063Z,11.60
2023-01-17T05:56:21.012Z,13.10
2023-01-17T05:58:48.278Z,17.20
2023-01-17T06:01:15.249Z,17.17
2023-01-17T06:03:42.458Z,18.30
2023-01-17T06:06:09.388Z,13.97
2023-01-17T06:08:36.948Z,16.00
2023-01-17T06:11:03.956Z,17.97
2023-01-17T06:13:31.210Z,20.37
2023-01-17T06:16:02.890Z,19.13
2023-01-17T06:18:31.341Z,18.83
2023-01-17T06:20:58.536Z,13.50
2023-01-17T06:23:25.758Z,16.13
2023-01-17T06:25:52.682Z,18.70
2023-01-17T06:28:22.845Z,25.47
2023-01-17T06:30:50.174Z,23.03
2023-01-17T06:33:17.429Z,22.37
2023-01-17T06:35:51.651Z,14.27
2023-01-17T06:38:19.338Z,17.80
2023-01-17T06:40:46.278Z,20.33
2023-01-17T06:43:13.441Z,20.93
2023-01-17T06:45:40.379Z,25.83
2023-01-17T06:48:07.748Z,35.87
2023-01-17T06:50:34.785Z,38.03
2023-01-17T06:53:04.590Z,24.80
2023-01-17T06:55:33.809Z,31.33
2023-01-17T06:58:03.173Z,21.97
2023-01-17T07:00:35.286Z,21.23
2023-01-17T07:03:02.828Z,22.27
2023-01-17T07:05:29.793Z,24.67
2023-01-17T07:07:57.755Z,16.83
2023-01-17T07:10:24.700Z,17.63
2023-01-17T07:13:00.546Z,20.63
2023-01-17T07:15:30.972Z,17.03
2023-01-17T07:18:08.743Z,13.67
2023-01-17T07:20:35.837Z,17.37
2023-01-17T07:23:03.211Z,15.70
2023-01-17T07:25:30.096Z,15.40
2023-01-17T07:27:57.962Z,22.37
2023-01-17T07:30:25.592Z,21.00
2023-01-17T07:32:55.852Z,23.43
2023-01-17T07:35:26.812Z,56.23
2023-01-17T07:37:55.715Z,73.53
2023-01-17T07:40:23.306Z,31.02
2023-01-17T07:42:50.740Z,25.97
2023-01-17T07:45:17.824Z,28.60
2023-01-17T07:47:45.076Z,38.27
2023-01-17T07:50:13.678Z,50.70
2023-01-17T07:52:41.440Z,64.82
2023-01-17T07:55:09.404Z,61.67
2023-01-17T07:57:36.712Z,49.15
2023-01-17T08:00:04.703Z,44.33
2023-01-17T08:02:31.969Z,29.77
2023-01-17T08:04:58.932Z,39.50
2023-01-17T08:07:26.203Z,44.00
2023-01-17T08:09:54.791Z,46.27
2023-01-17T08:12:21.982Z,42.33
2023-01-17T08:14:48.842Z,36.33
2023-01-17T08:17:17.179Z,33.80
2023-01-17T08:19:45.046Z,41.53
2023-01-17T08:22:12.530Z,33.80
2023-01-17T08:24:39.425Z,29.20
2023-01-17T08:27:09.041Z,23.20
2023-01-17T08:32:04.183Z,37.10
2023-01-17T08:34:33.345Z,43.53
2023-01-17T08:37:00.650Z,37.40
2023-01-17T08:39:27.743Z,29.67
2023-01-17T08:41:54.601Z,11.73
2023-01-17T08:44:21.856Z,14.50
2023-01-17T08:46:48.761Z,11.03
2023-01-17T08:49:16.140Z,10.20
2023-01-17T08:51:43.051Z,10.10
2023-01-17T08:54:12.974Z,11.93
2023-01-17T08:56:39.909Z,10.37
2023-01-17T08:59:07.255Z,12.17
2023-01-17T09:01:40.789Z,11.27
2023-01-17T09:04:09.425Z,9.83
2023-01-17T09:06:38.644Z,10.07
2023-01-17T09:09:07.443Z,10.03
2023-01-17T09:11:34.780Z,9.05
2023-01-17T09:14:01.999Z,8.57
2023-01-17T09:16:29.657Z,8.93
2023-01-17T09:18:57.846Z,8.87
2023-01-17T09:21:26.201Z,8.57
2023-01-17T09:23:54.766Z,10.20
2023-01-17T09:26:24.156Z,11.55
2023-01-17T09:28:52.131Z,14.13
2023-01-17T09:31:21.671Z,13.03
2023-01-17T09:33:50.498Z,17.17
2023-01-17T09:36:17.902Z,12.48
2023-01-17T09:38:45.245Z,12.03
2023-01-17T09:41:31.408Z,11.03
2023-01-17T09:44:18.146Z,11.20
2023-01-17T09:46:47.463Z,14.77
2023-01-17T09:49:44.037Z,16.30
2023-01-17T09:52:21.446Z,18.45
2023-01-17T09:54:49.680Z,21.70
2023-01-17T09:57:25.561Z,22.77
2023-01-17T10:00:26.787Z,13.33
2023-01-17T10:03:15.275Z,7.80
2023-01-17T10:06:10.873Z,5.38
2023-01-17T10:08:50.100Z,4.30
2023-01-17T10:11:53.438Z,4.90
2023-01-17T10:15:07.272Z,3.75
2023-01-17T10:17:55.627Z,2.15
2023-01-17T10:20:49.679Z,1.30
2023-01-17T10:23:35.515Z,3.80
2023-01-17T10:26:19.381Z,4.20
2023-01-17T10:28:53.052Z,3.17
2023-01-17T10:31:28.046Z,6.47
2023-01-17T10:34:16.575Z,6.30
2023-01-17T10:36:48.580Z,1.80
2023-01-17T10:39:28.638Z,1.17
2023-01-17T10:42:00.012Z,2.65
2023-01-17T10:44:45.758Z,3.55
2023-01-17T10:47:12.537Z,1.00
2023-01-17T10:49:44.386Z,1.57
2023-01-17T10:52:29.240Z,1.58
2023-01-17T10:55:24.213Z,1.23
2023-01-17T10:57:51.821Z,2.30
2023-01-17T11:00:59.337Z,1.80
2023-01-17T11:03:28.755Z,3.97
2023-01-17T11:06:15.223Z,4.65
2023-01-17T11:08:59.741Z,3.65
2023-01-17T11:11:32.543Z,1.97
2023-01-17T11:14:15.749Z,6.03
2023-01-17T11:16:43.868Z,3.70
2023-01-17T11:19:10.712Z,2.73
2023-01-17T11:21:39.651Z,4.38
2023-01-17T11:24:16.156Z,3.30
2023-01-17T11:26:49.603Z,2.72
2023-01-17T11:29:37.220Z,2.17
2023-01-17T11:32:36.660Z,2.95
2023-01-17T11:35:21.910Z,2.92
2023-01-17T11:37:52.180Z,2.30
2023-01-17T11:40:36.963Z,3.17
2023-01-17T11:43:14.436Z,2.30
2023-01-17T11:45:41.945Z,3.42
2023-01-17T11:48:09.160Z,3.45
2023-01-17T11:50:38.912Z,3.30
2023-01-17T11:53:13.719Z,4.00
2023-01-17T11:55:51.623Z,2.95
2023-01-17T11:58:20.717Z,4.70
2023-01-17T12:01:02.245Z,8.35
2023-01-17T12:03:38.660Z,2.55
2023-01-17T12:06:20.644Z,3.10
2023-01-17T12:09:32.405Z,5.45
2023-01-17T12:12:23.722Z,5.47
2023-01-17T12:15:11.960Z,5.18
2023-01-17T12:18:16.278Z,7.00
2023-01-17T12:21:14.628Z,4.00
2023-01-17T12:23:47.337Z,6.00
2023-01-17T12:26:19.787Z,4.65
2023-01-17T12:29:12.911Z,6.38
2023-01-17T12:31:53.138Z,7.30
2023-01-17T12:34:41.988Z,6.20
2023-01-17T12:37:29.734Z,5.72
2023-01-17T12:40:03.532Z,6.68
2023-01-17T12:42:40.769Z,6.00
2023-01-17T12:45:13.435Z,5.68
2023-01-17T12:47:47.508Z,5.22
2023-01-17T12:50:28.637Z,6.07
2023-01-17T12:53:12.619Z,5.97
2023-01-17T12:55:58.745Z,4.18
2023-01-17T12:58:30.560Z,8.30
2023-01-17T13:01:13.125Z,15.90
2023-01-17T13:03:57.816Z,6.78
2023-01-17T13:06:31.603Z,7.22
2023-01-17T13:09:02.914Z,7.47
2023-01-17T13:11:43.842Z,9.85
2023-01-17T13:14:11.028Z,8.95
2023-01-17T13:16:59.270Z,10.93
2023-01-17T13:19:44.776Z,7.22
2023-01-17T13:22:17.882Z,5.10
2023-01-17T13:25:15.350Z,5.85
2023-01-17T13:27:47.977Z,6.32
2023-01-17T13:30:30.859Z,16.23
2023-01-17T13:33:15.793Z,2.85
2023-01-17T13:36:10.263Z,5.80
2023-01-17T13:38:57.706Z,3.10
2023-01-17T13:41:36.951Z,5.10
2023-01-17T13:44:23.106Z,3.88
2023-01-17T13:47:04.380Z,3.92
2023-01-17T13:49:34.319Z,3.72
2023-01-17T13:52:11.058Z,4.75
2023-01-17T13:54:45.925Z,3.72
2023-01-17T13:57:30.281Z,3.42
2023-01-17T13:59:59.153Z,20.77
2023-01-17T14:02:32.480Z,14.07
2023-01-17T14:05:11.892Z,23.52
2023-01-17T14:07:48.026Z,25.25
2023-01-17T14:10:38.180Z,41.20
2023-01-17T14:13:24.991Z,18.38
2023-01-17T14:15:52.334Z,22.00
2023-01-17T14:18:42.219Z,14.57
2023-01-17T14:21:44.324Z,15.82
2023-01-17T14:24:13.112Z,10.13
2023-01-17T14:26:46.499Z,14.43
2023-01-17T14:29:47.829Z,9.90
2023-01-17T14:32:23.769Z,7.38
2023-01-17T14:34:52.804Z,8.43
2023-01-17T14:37:32.164Z,9.27
2023-01-17T14:40:01.100Z,13.98
2023-01-17T14:42:33.212Z,11.43
2023-01-17T14:45:13.535Z,9.33
2023-01-17T14:47:45.706Z,10.07
2023-01-17T14:50:22.246Z,14.63
2023-01-17T14:53:28.784Z,8.18
2023-01-17T14:56:17.148Z,15.98
2023-01-17T14:58:46.573Z,7.37
2023-01-17T15:01:20.809Z,11.10
2023-01-17T15:03:55.439Z,9.70
2023-01-17T15:06:27.905Z,11.43
2023-01-17T15:08:54.807Z,9.10
2023-01-17T15:11:26.004Z,23.60
2023-01-17T15:13:57.506Z,15.27
2023-01-17T15:16:28.350Z,11.10
2023-01-17T15:18:57.250Z,10.30
2023-01-17T15:24:00.028Z,30.37
2023-01-17T15:26:31.869Z,20.67
2023-01-17T15:29:07.708Z,14.20
2023-01-17T15:32:08.055Z,13.67
2023-01-17T15:34:43.413Z,13.77
2023-01-17T15:37:40.675Z,8.95
2023-01-17T15:40:19.303Z,10.47
2023-01-17T15:42:53.097Z,13.65
2023-01-17T15:45:25.041Z,12.70
2023-01-17T15:47:52.213Z,15.43
2023-01-17T15:50:30.867Z,13.77
2023-01-17T15:53:01.271Z,16.55
2023-01-17T15:55:35.249Z,16.77
2023-01-17T15:58:04.477Z,11.53
2023-01-17T16:00:38.459Z,98.18
2023-01-17T16:03:17.657Z,13.93
2023-01-17T16:05:44.917Z,17.50
2023-01-17T16:08:12.093Z,19.17
2023-01-17T16:10:39.573Z,19.70
2023-01-17T16:13:09.019Z,24.00
2023-01-17T16:15:37.833Z,19.65
2023-01-17T16:20:49.973Z,16.13
2023-01-17T16:23:17.299Z,13.27
2023-01-17T16:25:44.608Z,17.33
2023-01-17T16:28:11.831Z,12.93
2023-01-17T16:30:39.031Z,20.50
2023-01-17T16:33:06.320Z,24.30
2023-01-17T16:35:34.174Z,25.47
2023-01-17T16:38:04.429Z,21.10
2023-01-17T16:40:38.685Z,27.63
2023-01-17T16:43:05.936Z,29.27
2023-01-17T16:45:40.950Z,11.80
2023-01-17T16:48:09.088Z,17.17
2023-01-17T16:50:41.405Z,14.07
2023-01-17T16:53:08.852Z,22.73
2023-01-17T16:55:35.719Z,16.10
2023-01-17T16:58:02.936Z,29.07
2023-01-17T17:00:29.860Z,39.03
2023-01-17T17:02:57.686Z,47.17
2023-01-17T17:05:26.085Z,51.80
2023-01-17T17:07:54.021Z,41.95
2023-01-17T17:10:25.024Z,36.77
2023-01-17T17:12:52.288Z,41.57
2023-01-17T17:15:19.557Z,39.20
2023-01-17T17:17:48.114Z,34.60
2023-01-17T17:20:15.919Z,32.70
2023-01-17T17:22:49.290Z,31.43
2023-01-17T17:25:16.692Z,40.07
2023-01-17T17:27:43.865Z,97.47
2023-01-17T17:30:11.464Z,88.90
2023-01-17T17:32:38.823Z,81.73
2023-01-17T17:35:06.362Z,63.90
2023-01-17T17:37:34.441Z,42.93
2023-01-17T17:40:01.296Z,61.00
2023-01-17T17:42:28.487Z,51.90
2023-01-17T17:44:55.429Z,52.40
2023-01-17T17:47:24.051Z,56.23
2023-01-17T17:49:50.953Z,40.35
2023-01-17T17:52:18.207Z,48.33
2023-01-17T17:54:45.036Z,38.50
2023-01-17T17:57:12.311Z,51.23
2023-01-17T17:59:39.379Z,62.27
2023-01-17T18:02:06.835Z,62.93
2023-01-17T18:04:33.804Z,78.93
2023-01-17T18:07:00.978Z,157.97
2023-01-17T18:09:28.153Z,215.07
2023-01-17T18:11:55.497Z,256.90
2023-01-17T18:14:24.092Z,257.87
2023-01-17T18:16:51.668Z,185.90
2023-01-17T18:19:22.096Z,151.97
2023-01-17T18:21:52.937Z,147.30
2023-01-17T18:24:24.447Z,138.57
2023-01-17T18:26:54.256Z,148.27
2023-01-17T18:29:22.164Z,163.03
2023-01-17T18:31:51.948Z,147.10
2023-01-17T18:34:24.460Z,118.97
2023-01-17T18:36:52.292Z,116.63
2023-01-17T18:39:22.410Z,94.97
2023-01-17T18:41:49.628Z,99.97
2023-01-17T18:44:16.934Z,94.33
2023-01-17T18:46:44.140Z,98.77
2023-01-17T18:49:12.244Z,104.97
2023-01-17T18:51:39.581Z,120.10
2023-01-17T18:54:08.953Z,131.63
2023-01-17T18:56:36.312Z,150.00
2023-01-17T18:59:05.880Z,109.87
2023-01-17T19:01:35.977Z,88.80
2023-01-17T19:04:05.291Z,96.70
2023-01-17T19:06:38.745Z,171.57
2023-01-17T19:09:07.603Z,129.80
2023-01-17T19:14:02.862Z,89.97
2023-01-17T19:16:33.025Z,98.18
2023-01-17T19:19:06.968Z,126.57
2023-01-17T19:21:34.537Z,105.03
2023-01-17T19:24:01.855Z,112.47
2023-01-17T19:26:30.107Z,83.50
2023-01-17T19:28:59.025Z,86.37
2023-01-17T19:33:57.548Z,68.20
2023-01-17T19:36:28.294Z,52.53
2023-01-17T19:39:04.538Z,88.63
2023-01-17T19:41:35.651Z,121.63
2023-01-17T19:44:05.543Z,141.50
2023-01-17T19:46:33.747Z,143.50
2023-01-17T19:49:01.044Z,169.30
2023-01-17T19:51:28.595Z,187.57
2023-01-17T19:53:56.627Z,166.93
2023-01-17T19:56:26.063Z,176.40
2023-01-17T20:01:25.297Z,148.27
2023-01-17T20:03:52.860Z,151.30
2023-01-17T20:06:22.845Z,126.67
2023-01-17T20:08:49.958Z,149.20
2023-01-17T20:11:19.782Z,137.43
2023-01-17T20:13:48.502Z,127.77
2023-01-17T20:16:17.492Z,129.70
2023-01-17T20:18:45.239Z,130.40
2023-01-17T20:21:13.878Z,122.50
2023-01-17T20:23:43.245Z,94.90
2023-01-17T20:26:12.043Z,104.23
2023-01-17T20:28:41.290Z,96.50
2023-01-17T20:31:19.846Z,80.43
2023-01-17T20:33:50.339Z,65.10
2023-01-17T20:36:19.307Z,70.13
2023-01-17T20:38:46.611Z,185.73
2023-01-17T20:41:18.787Z,210.50
2023-01-17T20:43:54.683Z,126.67
2023-01-17T20:46:24.909Z,116.50
2023-01-17T20:48:57.955Z,90.17
2023-01-17T20:51:26.745Z,89.33
2023-01-17T20:53:59.852Z,98.95
2023-01-17T20:56:27.696Z,137.27
2023-01-17T20:58:54.996Z,107.63
2023-01-17T21:01:22.823Z,92.33
2023-01-17T21:03:53.128Z,90.60
2023-01-17T21:06:24.453Z,77.17
2023-01-17T21:08:52.767Z,87.03
2023-01-17T21:11:23.283Z,59.33
2023-01-17T21:13:51.439Z,68.97
2023-01-17T21:16:21.234Z,59.67
2023-01-17T21:18:50.139Z,54.47
2023-01-17T21:23:45.818Z,56.20
2023-01-17T21:26:15.024Z,54.23
2023-01-17T21:28:44.138Z,56.65
2023-01-17T21:31:19.629Z,61.90
2023-01-17T21:33:47.760Z,62.00
2023-01-17T21:36:15.061Z,58.20
2023-01-17T21:38:42.323Z,58.70
2023-01-17T21:41:09.608Z,66.73
2023-01-17T21:43:36.502Z,131.27
2023-01-17T21:46:04.877Z,90.23
2023-01-17T21:48:32.326Z,82.67
2023-01-17T21:51:07.202Z,58.77
2023-01-17T21:53:38.836Z,71.23
2023-01-17T21:56:29.227Z,72.77
2023-01-17T21:58:57.305Z,65.90
2023-01-17T22:01:30.206Z,73.53
2023-01-17T22:03:59.194Z,74.43
2023-01-17T22:06:29.284Z,74.40
2023-01-17T22:08:56.547Z,119.17
2023-01-17T22:11:26.381Z,209.17
2023-01-17T22:13:53.690Z,218.93
2023-01-17T22:16:23.673Z,245.17
2023-01-17T22:18:51.488Z,215.07
2023-01-17T22:21:21.869Z,190.13
2023-01-17T22:23:59.450Z,97.63
2023-01-17T22:26:31.515Z,110.20
2023-01-17T22:29:02.382Z,117.10
2023-01-17T22:31:29.619Z,115.50
2023-01-17T22:34:05.103Z,76.63
2023-01-17T22:36:33.388Z,58.43
2023-01-17T22:39:00.752Z,48.60
2023-01-17T22:41:29.929Z,43.27
2023-01-17T22:43:59.598Z,43.40
2023-01-17T22:46:29.041Z,44.77
2023-01-17T22:48:56.900Z,38.37
2023-01-17T22:51:24.929Z,41.13
2023-01-17T22:53:55.125Z,45.70
2023-01-17T22:56:26.543Z,44.40
2023-01-17T22:58:53.747Z,40.80
2023-01-17T23:01:25.705Z,35.83
2023-01-17T23:04:01.424Z,30.07
2023-01-17T23:06:37.257Z,25.33
2023-01-17T23:09:07.504Z,25.47
2023-01-17T23:11:40.755Z,24.73
2023-01-17T23:14:16.733Z,22.13
2023-01-17T23:17:22.542Z,25.70
2023-01-17T23:19:52.068Z,25.27
2023-01-17T23:22:24.306Z,27.20
2023-01-17T23:25:01.345Z,28.23
2023-01-17T23:27:51.418Z,26.97
2023-01-17T23:30:21.483Z,26.47
2023-01-17T23:33:00.726Z,25.53
2023-01-17T23:38:15.197Z,25.85
2023-01-17T23:40:42.712Z,23.23
2023-01-17T23:43:25.678Z,22.30
2023-01-17T23:45:54.541Z,20.47
2023-01-17T23:50:50.890Z,21.25
2023-01-17T23:53:23.134Z,16.97
2023-01-17T23:55:52.063Z,15.47
